Time;durP1;ratioP1;P1;durP2;ratioP2;P2;SDS_P1;SDS_P2;PMS_P1;PMS_P2;Temp;Humidity;BMP_temperature;BMP_pressure;BME280_temperature;BME280_humidity;BME280_pressure;Samples;Min_cycle;Max_cycle;Signal;HPM_P1;HPM_P2
2022/02/24 00:00:45;;;;;;;5.77;2.90;;;5.90;99.90;;;;;;5059257;28;20627;-66
2022/02/24 00:03:12;;;;;;;6.50;2.77;;;5.90;99.90;;;;;;5059169;28;20229;-66
2022/02/24 00:05:39;;;;;;;5.53;2.93;;;6.00;99.90;;;;;;5058091;28;20205;-64
2022/02/24 00:08:07;;;;;;;11.07;4.50;;;5.90;99.90;;;;;;5056763;28;20252;-64
2022/02/24 00:10:33;;;;;;;7.33;3.80;;;5.90;99.90;;;;;;5056170;28;20202;-63
2022/02/24 00:13:00;;;;;;;5.80;3.50;;;5.90;99.90;;;;;;5057132;28;20226;-67
2022/02/24 00:15:27;;;;;;;6.23;2.90;;;6.00;99.90;;;;;;5058535;28;20214;-64
2022/02/24 00:17:54;;;;;;;4.67;2.73;;;5.90;99.90;;;;;;5059432;28;20296;-65
2022/02/24 00:20:20;;;;;;;4.23;2.60;;;5.90;99.90;;;;;;5059323;28;20236;-64
2022/02/24 00:22:47;;;;;;;4.57;2.30;;;5.90;99.90;;;;;;5059308;28;20209;-63
2022/02/24 00:25:15;;;;;;;4.50;2.60;;;5.90;99.90;;;;;;5058455;28;20206;-65
2022/02/24 00:27:42;;;;;;;5.77;2.40;;;5.90;99.90;;;;;;5057701;28;20209;-66
2022/02/24 00:30:10;;;;;;;4.37;2.60;;;6.00;99.90;;;;;;5055618;28;20202;-67
2022/02/24 00:32:37;;;;;;;7.83;3.10;;;6.10;99.90;;;;;;5055405;28;20206;-66
2022/02/24 00:35:05;;;;;;;7.43;2.80;;;6.30;99.90;;;;;;5055630;28;20229;-65
2022/02/24 00:37:32;;;;;;;5.30;2.20;;;6.40;99.90;;;;;;5055789;28;20202;-63
2022/02/24 00:39:58;;;;;;;5.50;2.10;;;6.60;99.90;;;;;;5055211;28;20657;-64
2022/02/24 00:42:27;;;;;;;6.40;2.30;;;6.80;99.90;;;;;;5054249;28;20206;-65
2022/02/24 00:44:53;;;;;;;5.17;2.13;;;7.00;99.90;;;;;;5054001;28;20225;-65
2022/02/24 00:47:20;;;;;;;3.60;2.30;;;7.10;99.90;;;;;;5054112;28;20663;-64
2022/02/24 00:49:47;;;;;;;6.30;2.57;;;7.20;99.90;;;;;;5054132;28;20215;-64
2022/02/24 00:52:14;;;;;;;5.57;2.17;;;7.30;99.90;;;;;;5053725;28;20206;-64
2022/02/24 00:54:40;;;;;;;3.63;1.97;;;7.40;99.90;;;;;;5053764;28;20230;-64
2022/02/24 00:57:07;;;;;;;5.37;2.50;;;7.60;99.90;;;;;;5053914;28;20205;-64
2022/02/24 00:59:35;;;;;;;4.10;3.03;;;7.70;99.90;;;;;;5054201;28;20522;-64
2022/02/24 01:02:02;;;;;;;4.07;2.77;;;7.50;99.90;;;;;;5053567;28;20267;-64
2022/02/24 01:04:29;;;;;;;4.03;2.20;;;7.40;99.90;;;;;;5053718;28;20577;-65
2022/02/24 01:06:55;;;;;;;2.90;1.50;;;7.20;99.90;;;;;;5054169;28;20212;-64
2022/02/24 01:09:22;;;;;;;6.03;2.10;;;7.30;99.90;;;;;;5053767;28;20201;-65
2022/02/24 01:11:49;;;;;;;5.60;2.30;;;7.60;99.90;;;;;;5053947;28;20209;-65
2022/02/24 01:14:16;;;;;;;3.70;2.10;;;7.80;99.90;;;;;;5053318;28;20261;-65
2022/02/24 01:16:44;;;;;;;6.40;3.50;;;8.00;99.90;;;;;;5053723;28;20205;-64
2022/02/24 01:19:11;;;;;;;6.33;2.70;;;8.10;99.90;;;;;;5053536;28;20256;-64
2022/02/24 01:21:38;;;;;;;4.83;3.00;;;8.00;99.90;;;;;;5053477;28;20230;-64
2022/02/24 01:24:05;;;;;;;5.43;3.40;;;7.90;99.90;;;;;;5053128;28;20229;-64
2022/02/24 01:26:32;;;;;;;6.40;3.60;;;7.90;99.90;;;;;;5053396;28;20205;-64
2022/02/24 01:28:58;;;;;;;6.23;3.17;;;7.90;99.90;;;;;;5053379;28;20212;-65
2022/02/24 01:31:25;;;;;;;4.80;3.70;;;7.80;99.90;;;;;;5053070;28;20622;-64
2022/02/24 01:33:53;;;;;;;6.97;3.50;;;7.60;99.90;;;;;;5052805;28;20225;-64
2022/02/24 01:36:20;;;;;;;5.60;3.27;;;7.50;99.90;;;;;;5053485;28;20317;-64
2022/02/24 01:38:46;;;;;;;7.33;3.80;;;7.60;99.90;;;;;;5052686;28;20206;-64
2022/02/24 01:41:13;;;;;;;5.60;3.10;;;7.70;99.90;;;;;;5052951;28;20233;-64
2022/02/24 01:43:43;;;;;;;3.73;2.63;;;7.60;99.90;;;;;;5052958;28;20229;-64
2022/02/24 01:46:10;;;;;;;6.83;3.30;;;7.40;99.90;;;;;;5052734;28;20290;-65
2022/02/24 01:48:37;;;;;;;5.80;3.17;;;7.20;99.90;;;;;;5052849;28;20217;-65
2022/02/24 01:51:05;;;;;;;5.13;3.07;;;7.10;99.90;;;;;;5053143;28;20202;-64
2022/02/24 01:53:34;;;;;;;6.03;3.10;;;7.00;99.90;;;;;;5053078;28;20228;-64
2022/02/24 01:56:01;;;;;;;5.03;3.03;;;6.90;99.90;;;;;;5053860;28;20220;-65
2022/02/24 01:58:27;;;;;;;5.77;3.40;;;6.80;99.90;;;;;;5052979;28;20565;-63
2022/02/24 02:00:54;;;;;;;7.93;3.10;;;6.60;99.90;;;;;;5052617;28;20224;-64
2022/02/24 02:03:21;;;;;;;7.53;3.33;;;6.50;99.90;;;;;;5052913;28;20263;-63
2022/02/24 02:05:49;;;;;;;6.30;3.73;;;6.50;99.90;;;;;;5052654;28;20210;-64
2022/02/24 02:08:18;;;;;;;4.73;3.20;;;6.50;99.90;;;;;;5052705;28;20213;-64
2022/02/24 02:10:45;;;;;;;4.97;3.50;;;6.50;99.90;;;;;;5052626;28;20247;-63
2022/02/24 02:13:12;;;;;;;6.73;3.50;;;6.50;99.90;;;;;;5052489;28;20240;-63
2022/02/24 02:15:38;;;;;;;9.10;3.97;;;6.50;99.90;;;;;;5052401;28;20292;-64
2022/02/24 02:18:05;;;;;;;6.33;3.10;;;6.40;99.90;;;;;;5052837;28;20205;-64
2022/02/24 02:20:32;;;;;;;6.40;3.30;;;6.20;99.90;;;;;;5052825;28;20563;-64
2022/02/24 02:23:00;;;;;;;7.40;3.30;;;6.10;99.90;;;;;;5052808;28;20206;-64
2022/02/24 02:25:26;;;;;;;9.00;3.70;;;6.10;99.90;;;;;;5052600;28;20210;-64
2022/02/24 02:27:53;;;;;;;6.20;3.17;;;6.20;99.90;;;;;;5052581;28;20201;-64
2022/02/24 02:30:22;;;;;;;6.10;3.70;;;6.30;99.90;;;;;;5052691;28;20287;-64
2022/02/24 02:32:49;;;;;;;6.60;3.80;;;6.30;99.90;;;;;;5052392;28;20198;-63
2022/02/24 02:35:16;;;;;;;5.87;3.70;;;6.40;99.90;;;;;;5052035;28;20205;-64
2022/02/24 02:37:43;;;;;;;6.20;3.63;;;6.50;99.90;;;;;;5052259;28;20205;-64
2022/02/24 02:40:12;;;;;;;5.63;3.40;;;6.60;99.90;;;;;;5052069;28;20217;-64
2022/02/24 02:42:39;;;;;;;8.67;3.80;;;6.60;99.90;;;;;;5051868;28;20232;-64
2022/02/24 02:45:08;;;;;;;4.80;2.87;;;6.70;99.90;;;;;;5051897;28;20206;-64
2022/02/24 02:47:35;;;;;;;5.60;3.23;;;6.80;99.90;;;;;;5052087;28;20589;-65
2022/02/24 02:50:02;;;;;;;3.97;2.63;;;7.00;99.90;;;;;;5051104;28;20213;-64
2022/02/24 02:52:28;;;;;;;7.20;3.70;;;7.00;99.90;;;;;;5051914;28;20247;-64
2022/02/24 02:55:00;;;;;;;8.10;3.10;;;7.10;99.90;;;;;;5051673;28;20229;-64
2022/02/24 02:57:28;;;;;;;5.23;2.93;;;7.10;99.90;;;;;;5052154;28;20205;-64
2022/02/24 02:59:54;;;;;;;6.23;3.50;;;7.20;99.90;;;;;;5051905;28;20209;-64
2022/02/24 03:02:21;;;;;;;5.40;3.50;;;7.20;99.90;;;;;;5051789;28;20229;-64
2022/02/24 03:04:50;;;;;;;6.23;3.30;;;7.10;99.90;;;;;;5051847;28;20233;-64
2022/02/24 03:07:17;;;;;;;4.40;2.87;;;7.10;99.90;;;;;;5051935;28;20210;-63
2022/02/24 03:09:44;;;;;;;5.17;2.80;;;7.10;99.90;;;;;;5052034;28;20209;-62
2022/02/24 03:12:11;;;;;;;4.43;3.23;;;7.10;99.90;;;;;;5051774;28;20387;-62
2022/02/24 03:14:39;;;;;;;5.37;2.90;;;7.10;99.90;;;;;;5093934;22;20235;-60
2022/02/24 03:17:06;;;;;;;5.10;2.90;;;7.10;99.90;;;;;;5083563;28;20212;-60
2022/02/24 03:19:33;;;;;;;4.30;2.50;;;7.10;99.90;;;;;;5091949;28;20663;-59
2022/02/24 03:22:00;;;;;;;4.10;2.37;;;7.20;99.90;;;;;;5091880;28;20384;-59
2022/02/24 03:24:26;;;;;;;5.30;2.30;;;7.20;99.90;;;;;;5091569;28;20629;-59
2022/02/24 03:26:53;;;;;;;5.93;2.40;;;7.20;99.90;;;;;;5092164;28;20223;-58
2022/02/24 03:29:20;;;;;;;3.17;2.07;;;7.30;99.90;;;;;;5091831;28;20208;-59
2022/02/24 03:31:48;;;;;;;3.43;2.00;;;7.30;99.90;;;;;;5091787;28;20208;-58
2022/02/24 03:34:15;;;;;;;3.97;2.30;;;7.40;99.90;;;;;;5091551;28;20382;-58
2022/02/24 03:36:42;;;;;;;3.63;1.87;;;7.50;99.90;;;;;;5091735;28;20212;-59
2022/02/24 03:39:09;;;;;;;3.00;2.00;;;7.60;99.90;;;;;;5091749;28;20215;-59
2022/02/24 03:41:36;;;;;;;3.90;2.43;;;7.70;99.90;;;;;;5091733;28;20278;-58
2022/02/24 03:44:02;;;;;;;3.77;2.50;;;7.70;99.90;;;;;;5091455;28;20225;-59
2022/02/24 03:46:29;;;;;;;3.97;2.40;;;7.80;99.90;;;;;;5091591;28;20207;-58
2022/02/24 03:48:57;;;;;;;5.83;2.70;;;7.80;99.90;;;;;;5091675;28;20205;-58
2022/02/24 03:51:24;;;;;;;5.20;2.67;;;7.80;99.90;;;;;;5092263;28;20208;-58
2022/02/24 03:53:51;;;;;;;6.10;2.70;;;7.80;99.90;;;;;;5091595;28;20220;-59
2022/02/24 03:56:17;;;;;;;7.10;2.70;;;7.80;99.90;;;;;;5091493;28;20737;-58
2022/02/24 03:58:45;;;;;;;4.27;2.57;;;7.70;99.90;;;;;;5091782;28;20215;-59
2022/02/24 04:01:12;;;;;;;4.87;2.50;;;7.70;99.90;;;;;;5091874;28;20205;-59
2022/02/24 04:03:39;;;;;;;5.07;2.47;;;7.70;99.90;;;;;;5094874;28;20655;-59
2022/02/24 04:06:07;;;;;;;6.70;2.30;;;7.60;99.90;;;;;;5095178;28;20204;-59
2022/02/24 04:08:34;;;;;;;4.20;2.60;;;7.50;99.90;;;;;;5095040;28;20708;-60
2022/02/24 04:11:01;;;;;;;4.47;2.30;;;7.50;99.90;;;;;;5095120;28;20208;-59
2022/02/24 04:13:28;;;;;;;4.17;2.40;;;7.50;99.90;;;;;;5094723;28;20230;-58
2022/02/24 04:15:54;;;;;;;3.77;2.07;;;7.50;99.90;;;;;;5094718;28;20204;-59
2022/02/24 04:18:21;;;;;;;3.50;2.40;;;7.50;99.90;;;;;;5094698;28;20209;-59
2022/02/24 04:20:48;;;;;;;4.57;2.20;;;7.50;99.90;;;;;;5095048;28;20618;-59
2022/02/24 04:23:16;;;;;;;6.43;2.60;;;7.50;99.90;;;;;;5094863;28;20236;-58
2022/02/24 04:25:43;;;;;;;4.87;2.40;;;7.40;99.90;;;;;;5094390;28;20208;-58
2022/02/24 04:28:09;;;;;;;4.67;2.50;;;7.20;99.90;;;;;;5094728;28;20205;-59
2022/02/24 04:30:36;;;;;;;4.17;2.40;;;7.20;99.90;;;;;;5094529;28;20527;-59
2022/02/24 04:33:03;;;;;;;7.03;2.37;;;7.20;99.90;;;;;;5094583;28;20204;-58
2022/02/24 04:35:30;;;;;;;2.73;1.90;;;7.30;99.90;;;;;;5094748;28;20224;-58
2022/02/24 04:37:57;;;;;;;9.07;7.97;;;7.30;99.90;;;;;;5094648;28;20212;-58
2022/02/24 04:40:25;;;;;;;4.70;2.87;;;7.30;99.90;;;;;;5094502;28;20207;-59
2022/02/24 04:42:51;;;;;;;4.77;2.70;;;7.20;99.90;;;;;;5094500;28;20220;-58
2022/02/24 04:45:18;;;;;;;4.20;2.47;;;7.10;99.90;;;;;;5093901;28;20597;-58
2022/02/24 04:47:45;;;;;;;4.70;3.30;;;7.00;99.90;;;;;;5094215;28;20204;-58
2022/02/24 04:50:12;;;;;;;6.83;2.77;;;6.90;99.90;;;;;;5094473;28;20208;-59
2022/02/24 04:52:40;;;;;;;4.20;2.23;;;6.80;99.90;;;;;;5094540;28;20208;-59
2022/02/24 04:55:09;;;;;;;4.67;2.90;;;6.70;99.90;;;;;;5093970;28;20247;-59
2022/02/24 04:57:37;;;;;;;3.90;2.27;;;6.60;99.90;;;;;;5094261;28;20671;-59
2022/02/24 05:00:05;;;;;;;6.23;2.27;;;6.50;99.90;;;;;;5094088;28;20204;-59
2022/02/24 05:02:32;;;;;;;4.40;2.40;;;6.40;99.90;;;;;;5094139;28;20224;-60
2022/02/24 05:04:58;;;;;;;4.77;2.50;;;6.30;99.90;;;;;;5093855;28;20282;-59
2022/02/24 05:07:25;;;;;;;4.40;2.63;;;6.30;99.90;;;;;;5094151;28;20203;-58
2022/02/24 05:09:52;;;;;;;3.17;2.43;;;6.30;99.90;;;;;;5093936;28;20208;-58
2022/02/24 05:12:18;;;;;;;2.47;2.07;;;6.30;99.90;;;;;;5093750;28;20196;-58
2022/02/24 05:14:47;;;;;;;6.20;4.07;;;6.30;99.90;;;;;;5092734;28;20240;-58
2022/02/24 05:17:13;;;;;;;3.97;2.70;;;6.30;99.90;;;;;;5093871;28;20204;-57
2022/02/24 05:19:40;;;;;;;3.67;2.40;;;6.30;99.90;;;;;;5093821;28;20217;-58
2022/02/24 05:22:07;;;;;;;3.57;2.83;;;6.30;99.90;;;;;;5093655;28;20319;-58
2022/02/24 05:24:34;;;;;;;4.97;2.83;;;6.30;99.90;;;;;;5093376;28;20273;-58
2022/02/24 05:27:00;;;;;;;4.20;2.60;;;6.30;99.90;;;;;;5093620;28;20204;-58
2022/02/24 05:29:27;;;;;;;3.63;2.43;;;6.20;99.90;;;;;;5093365;28;20667;-59
2022/02/24 05:31:55;;;;;;;5.80;2.90;;;6.20;99.90;;;;;;5093425;28;20278;-58
2022/02/24 05:34:22;;;;;;;4.67;2.90;;;6.20;99.90;;;;;;5093073;28;20228;-58
2022/02/24 05:36:49;;;;;;;4.10;2.80;;;6.20;99.90;;;;;;5093417;28;20234;-59
2022/02/24 05:39:16;;;;;;;4.87;2.40;;;6.30;99.90;;;;;;5093320;28;20204;-59
2022/02/24 05:41:43;;;;;;;5.00;3.63;;;6.20;99.90;;;;;;5093314;28;20215;-58
2022/02/24 05:44:09;;;;;;;4.23;2.30;;;6.20;99.90;;;;;;5093253;28;20231;-58
2022/02/24 05:46:36;;;;;;;4.40;2.80;;;6.30;99.90;;;;;;5093257;28;20257;-57
2022/02/24 05:49:04;;;;;;;7.27;2.80;;;6.30;99.90;;;;;;5093243;28;20234;-58
2022/02/24 05:51:31;;;;;;;3.93;2.70;;;6.20;99.90;;;;;;5093068;28;20734;-59
2022/02/24 05:53:58;;;;;;;3.23;2.40;;;6.10;99.90;;;;;;5093181;28;20224;-58
2022/02/24 05:56:24;;;;;;;3.80;2.60;;;6.00;99.90;;;;;;5092573;28;20204;-59
2022/02/24 05:58:51;;;;;;;5.60;2.87;;;5.90;99.90;;;;;;5093153;28;20219;-58
2022/02/24 06:01:18;;;;;;;5.23;3.30;;;5.90;99.90;;;;;;5093114;28;20214;-58
2022/02/24 06:03:44;;;;;;;8.00;3.80;;;6.00;99.90;;;;;;5092815;28;20236;-59
2022/02/24 06:06:12;;;;;;;6.83;3.63;;;6.00;99.90;;;;;;5092605;28;20687;-58
2022/02/24 06:08:39;;;;;;;4.90;2.83;;;6.10;99.90;;;;;;5092743;28;20208;-58
2022/02/24 06:11:06;;;;;;;6.17;3.43;;;6.00;99.90;;;;;;5092620;28;20214;-59
2022/02/24 06:13:32;;;;;;;5.03;3.47;;;6.10;99.90;;;;;;5092946;28;20263;-58
2022/02/24 06:16:00;;;;;;;5.10;3.03;;;6.10;99.90;;;;;;5092485;28;20231;-58
2022/02/24 06:18:27;;;;;;;5.63;2.90;;;6.20;99.90;;;;;;5092630;28;20227;-58
2022/02/24 06:20:54;;;;;;;5.20;2.77;;;6.20;99.90;;;;;;5092577;28;20253;-60
2022/02/24 06:23:22;;;;;;;6.00;2.70;;;6.20;99.90;;;;;;5092653;28;20227;-58
2022/02/24 06:25:49;;;;;;;8.80;2.93;;;6.20;99.90;;;;;;5092307;28;20581;-58
2022/02/24 06:28:16;;;;;;;8.43;2.90;;;6.20;99.90;;;;;;5092798;28;20211;-58
2022/02/24 06:30:43;;;;;;;4.47;2.80;;;6.20;99.90;;;;;;5092532;28;20209;-58
2022/02/24 06:33:09;;;;;;;5.80;3.10;;;6.20;99.90;;;;;;5092618;28;20204;-58
2022/02/24 06:35:36;;;;;;;8.03;3.13;;;6.30;99.90;;;;;;5092036;28;20265;-58
2022/02/24 06:38:03;;;;;;;6.27;3.00;;;6.30;99.90;;;;;;5092239;28;20203;-58
2022/02/24 06:40:31;;;;;;;6.87;3.30;;;6.40;99.90;;;;;;5092421;28;20204;-58
2022/02/24 06:42:58;;;;;;;7.90;3.03;;;6.40;99.90;;;;;;5092483;28;20228;-57
2022/02/24 06:45:25;;;;;;;5.23;3.50;;;6.40;99.90;;;;;;5092063;28;20311;-58
2022/02/24 06:47:52;;;;;;;4.57;3.23;;;6.50;99.90;;;;;;5091865;28;20208;-58
2022/02/24 06:50:19;;;;;;;5.10;2.90;;;6.60;99.90;;;;;;5092085;28;20203;-58
2022/02/24 06:52:46;;;;;;;4.90;2.63;;;6.60;99.90;;;;;;5092116;28;20249;-58
2022/02/24 06:55:13;;;;;;;4.37;3.10;;;6.50;99.90;;;;;;5092145;28;20235;-57
2022/02/24 06:57:44;;;;;;;4.33;2.53;;;6.70;99.90;;;;;;5092403;28;20291;-58
2022/02/24 07:00:12;;;;;;;5.60;2.50;;;6.70;99.90;;;;;;5092213;28;20204;-58
2022/02/24 07:02:38;;;;;;;3.67;2.60;;;6.70;99.90;;;;;;5091896;28;20220;-58
2022/02/24 07:05:06;;;;;;;6.40;2.80;;;6.80;99.90;;;;;;5091616;28;20224;-59
2022/02/24 07:07:34;;;;;;;6.63;3.07;;;6.90;99.90;;;;;;5092011;28;20208;-58
2022/02/24 07:10:02;;;;;;;4.23;2.57;;;7.10;99.90;;;;;;5092083;28;20236;-58
2022/02/24 07:12:29;;;;;;;4.17;3.00;;;7.30;99.90;;;;;;5092042;28;20287;-58
2022/02/24 07:14:57;;;;;;;6.30;2.73;;;7.50;99.90;;;;;;5091835;28;20252;-58
2022/02/24 07:17:23;;;;;;;3.03;2.40;;;7.60;99.90;;;;;;5092151;28;20216;-58
2022/02/24 07:19:50;;;;;;;5.05;2.90;;;7.70;99.90;;;;;;5085617;28;20779;-58
2022/02/24 07:22:17;;;;;;;3.73;2.57;;;7.90;99.90;;;;;;5070303;28;20204;-60
2022/02/24 07:24:43;;;;;;;4.60;3.23;;;8.00;99.90;;;;;;5070790;28;20578;-60
2022/02/24 07:27:10;;;;;;;6.03;2.73;;;8.00;99.90;;;;;;5071275;28;20209;-59
2022/02/24 07:29:37;;;;;;;4.87;2.63;;;7.90;99.90;;;;;;5072162;28;20208;-57
2022/02/24 07:32:06;;;;;;;6.03;3.10;;;8.00;99.90;;;;;;5091575;28;20262;-59
2022/02/24 07:34:32;;;;;;;4.60;2.83;;;8.30;99.90;;;;;;5091391;28;20597;-61
2022/02/24 07:37:00;;;;;;;3.80;2.60;;;8.60;99.90;;;;;;5093394;28;20212;-59
2022/02/24 07:39:26;;;;;;;7.43;2.90;;;8.90;99.90;;;;;;5095832;28;20212;-58
2022/02/24 07:41:53;;;;;;;5.07;3.30;;;9.00;99.90;;;;;;5095578;28;20201;-61
2022/02/24 07:44:20;;;;;;;5.40;3.00;;;9.00;99.90;;;;;;5094991;28;20232;-57
2022/02/24 07:46:46;;;;;;;3.63;2.60;;;9.10;99.90;;;;;;5095458;28;20204;-57
2022/02/24 07:49:14;;;;;;;4.30;2.70;;;9.00;99.90;;;;;;5095516;28;20204;-57
2022/02/24 07:51:43;;;;;;;4.60;2.87;;;9.10;99.90;;;;;;5095527;28;20216;-57
2022/02/24 07:54:09;;;;;;;6.27;2.90;;;9.10;99.90;;;;;;5095723;28;20657;-57
2022/02/24 07:56:36;;;;;;;4.00;2.77;;;9.20;99.90;;;;;;5095379;28;20212;-57
2022/02/24 07:59:03;;;;;;;4.63;3.50;;;9.40;99.90;;;;;;5095540;28;20210;-57
2022/02/24 08:01:30;;;;;;;5.57;3.13;;;9.60;99.90;;;;;;5095795;28;20204;-57
2022/02/24 08:03:56;;;;;;;4.30;3.00;;;9.80;99.90;;;;;;5095529;28;20235;-57
2022/02/24 08:06:24;;;;;;;7.60;3.13;;;9.90;99.90;;;;;;5095525;28;20204;-57
2022/02/24 08:08:52;;;;;;;7.10;4.67;;;10.00;99.90;;;;;;5095937;28;20211;-58
2022/02/24 08:11:19;;;;;;;7.57;3.40;;;10.10;99.90;;;;;;5095734;28;20204;-57
2022/02/24 08:13:45;;;;;;;7.93;3.13;;;10.10;99.90;;;;;;5094648;28;20731;-57
2022/02/24 08:16:12;;;;;;;6.67;3.43;;;10.20;99.90;;;;;;5094931;28;20208;-57
2022/02/24 08:18:39;;;;;;;5.43;3.30;;;10.30;99.90;;;;;;5094845;28;20212;-57
2022/02/24 08:21:05;;;;;;;4.03;2.90;;;10.40;99.90;;;;;;5094812;28;20216;-57
2022/02/24 08:23:33;;;;;;;6.80;4.17;;;10.40;99.90;;;;;;5094461;28;20707;-57
2022/02/24 08:26:01;;;;;;;4.30;2.20;;;10.40;99.90;;;;;;5094469;28;20261;-57
2022/02/24 08:28:27;;;;;;;6.00;2.60;;;10.30;99.90;;;;;;5094830;28;20257;-57
2022/02/24 08:30:54;;;;;;;4.70;2.50;;;10.30;99.90;;;;;;5094876;28;20618;-57
2022/02/24 08:33:21;;;;;;;4.10;2.17;;;10.40;99.90;;;;;;5094535;28;20208;-57
2022/02/24 08:35:47;;;;;;;4.37;2.37;;;10.20;99.90;;;;;;5094550;28;20207;-58
2022/02/24 08:38:14;;;;;;;2.80;2.23;;;10.30;99.90;;;;;;5094578;28;20671;-57
2022/02/24 08:40:42;;;;;;;4.63;2.23;;;10.30;99.90;;;;;;5094452;28;20215;-57
2022/02/24 08:43:09;;;;;;;4.30;2.07;;;10.40;99.90;;;;;;5094133;28;20699;-57
2022/02/24 08:45:36;;;;;;;3.07;2.27;;;10.50;99.90;;;;;;5094495;28;20200;-57
2022/02/24 08:48:04;;;;;;;4.63;2.20;;;10.80;99.90;;;;;;5094229;28;20691;-57
2022/02/24 08:50:31;;;;;;;2.80;2.30;;;10.90;99.90;;;;;;5094414;28;20207;-57
2022/02/24 08:52:58;;;;;;;3.23;2.03;;;11.10;99.90;;;;;;5094367;28;20196;-57
2022/02/24 08:55:25;;;;;;;4.83;2.50;;;11.30;99.90;;;;;;5093677;28;20235;-57
2022/02/24 08:57:54;;;;;;;2.83;1.93;;;11.30;99.90;;;;;;5094281;28;20298;-57
2022/02/24 09:00:20;;;;;;;4.07;2.10;;;11.50;99.90;;;;;;5093895;28;20211;-57
2022/02/24 09:02:47;;;;;;;3.03;2.10;;;11.60;99.90;;;;;;5094019;28;20204;-57
2022/02/24 09:05:14;;;;;;;2.57;1.80;;;11.80;99.90;;;;;;5093793;28;20232;-57
2022/02/24 09:07:40;;;;;;;3.33;2.00;;;11.90;99.90;;;;;;5093962;28;20230;-57
2022/02/24 09:10:10;;;;;;;6.43;1.97;;;12.10;99.90;;;;;;5093706;28;20208;-57
2022/02/24 09:12:37;;;;;;;4.17;1.83;;;12.30;99.90;;;;;;5093875;28;20241;-58
2022/02/24 09:15:06;;;;;;;2.03;1.60;;;12.40;99.90;;;;;;5094056;28;20730;-58
2022/02/24 09:17:34;;;;;;;4.97;1.73;;;12.60;99.90;;;;;;5093886;28;20208;-58
2022/02/24 09:20:01;;;;;;;2.03;1.40;;;12.70;99.90;;;;;;5093686;28;20289;-58
2022/02/24 09:22:28;;;;;;;2.20;1.40;;;12.70;99.90;;;;;;5093441;28;20762;-58
2022/02/24 09:24:54;;;;;;;2.37;1.53;;;12.70;99.90;;;;;;5093193;28;20232;-58
2022/02/24 09:27:21;;;;;;;5.27;3.10;;;12.80;99.90;;;;;;5093582;28;20200;-58
2022/02/24 09:29:48;;;;;;;2.33;1.57;;;12.80;99.90;;;;;;5093494;28;20208;-58
2022/02/24 09:32:16;;;;;;;3.23;1.50;;;12.90;99.90;;;;;;5093504;28;20207;-58
2022/02/24 09:34:43;;;;;;;2.67;1.70;;;12.90;99.90;;;;;;5093177;28;20695;-58
2022/02/24 09:37:10;;;;;;;3.30;1.90;;;13.10;99.90;;;;;;5093112;28;20201;-58
2022/02/24 09:39:37;;;;;;;3.67;1.80;;;13.20;99.90;;;;;;5093255;28;20200;-58
2022/02/24 09:42:04;;;;;;;2.80;1.67;;;13.20;99.90;;;;;;5093492;28;20637;-58
2022/02/24 09:44:31;;;;;;;3.03;1.90;;;13.20;99.90;;;;;;5092736;28;20236;-58
2022/02/24 09:46:58;;;;;;;3.60;1.80;;;13.30;99.90;;;;;;5093235;28;20208;-57
2022/02/24 09:49:29;;;;;;;3.87;1.73;;;13.20;99.90;;;;;;5093178;28;20208;-58
2022/02/24 09:51:56;;;;;;;2.90;1.60;;;13.20;99.90;;;;;;5093546;28;20204;-58
2022/02/24 09:54:23;;;;;;;2.87;1.50;;;13.30;99.90;;;;;;5093238;28;20652;-58
2022/02/24 09:56:50;;;;;;;4.37;1.50;;;13.40;99.90;;;;;;5092921;28;20208;-58
2022/02/24 09:59:17;;;;;;;3.23;1.80;;;13.50;99.90;;;;;;5092569;28;20204;-59
2022/02/24 10:01:45;;;;;;;3.10;2.03;;;13.70;99.90;;;;;;5093273;28;20207;-57
2022/02/24 10:04:12;;;;;;;5.30;2.20;;;13.90;99.90;;;;;;5092530;28;20322;-57
2022/02/24 10:06:42;;;;;;;4.13;2.10;;;14.20;99.90;;;;;;5092573;28;20212;-57
2022/02/24 10:09:10;;;;;;;3.00;1.63;;;14.40;99.90;;;;;;5092757;28;20212;-57
2022/02/24 10:11:40;;;;;;;3.07;1.80;;;14.50;99.90;;;;;;5092986;28;20211;-57
2022/02/24 10:14:08;;;;;;;3.60;1.90;;;14.60;99.90;;;;;;5092507;28;20703;-57
2022/02/24 10:16:51;;;;;;;2.77;1.60;;;14.60;99.90;;;;;;5092340;28;20600;-57
2022/02/24 10:19:18;;;;;;;5.13;1.73;;;14.70;99.90;;;;;;5092834;28;20294;-58
2022/02/24 10:22:08;;;;;;;2.23;1.67;;;14.70;99.90;;;;;;5092550;28;20615;-58
2022/02/24 10:24:35;;;;;;;3.07;1.50;;;14.80;99.90;;;;;;5092217;28;20613;-57
2022/02/24 10:27:20;;;;;;;4.37;1.93;;;14.70;99.90;;;;;;5092371;28;20611;-57
2022/02/24 10:30:09;;;;;;;2.63;1.63;;;14.80;99.90;;;;;;5092465;28;20209;-58
2022/02/24 10:32:37;;;;;;;5.13;1.70;;;14.80;99.80;;;;;;5089258;28;20212;-58
2022/02/24 10:35:25;;;;;;;4.00;1.70;;;14.80;99.90;;;;;;5091741;28;20223;-58
2022/02/24 10:38:02;;;;;;;3.37;1.83;;;14.90;99.90;;;;;;5092297;28;20208;-57
2022/02/24 10:40:31;;;;;;;3.37;1.90;;;15.00;99.90;;;;;;5092518;28;20477;-57
2022/02/24 10:43:12;;;;;;;5.10;1.70;;;15.20;99.90;;;;;;5092276;28;20223;-58
2022/02/24 10:45:41;;;;;;;2.97;1.80;;;15.40;99.80;;;;;;5091945;28;20204;-58
2022/02/24 10:48:08;;;;;;;2.77;1.67;;;15.40;99.50;;;;;;5091950;28;20204;-57
2022/02/24 10:50:50;;;;;;;2.90;1.83;;;15.30;99.60;;;;;;5092394;28;20204;-57
2022/02/24 10:53:21;;;;;;;4.33;1.93;;;15.30;99.30;;;;;;5092351;28;20577;-57
2022/02/24 10:56:00;;;;;;;2.77;1.70;;;15.30;99.40;;;;;;5091988;28;20298;-57
2022/02/24 10:58:28;;;;;;;5.40;1.73;;;15.30;99.20;;;;;;5092024;28;20269;-57
2022/02/24 11:01:24;;;;;;;4.27;1.83;;;15.30;99.40;;;;;;5092283;28;20208;-57
2022/02/24 11:03:52;;;;;;;3.10;1.87;;;15.40;99.00;;;;;;5067860;28;20231;-58
2022/02/24 11:06:21;;;;;;;6.03;3.73;;;15.50;99.30;;;;;;5091643;28;20203;-58
2022/02/24 11:08:50;;;;;;;6.83;4.07;;;15.60;99.10;;;;;;5092195;28;20208;-58
2022/02/24 11:11:22;;;;;;;7.13;2.60;;;15.60;99.00;;;;;;5092723;28;20208;-58
2022/02/24 11:13:49;;;;;;;3.67;2.10;;;15.70;98.90;;;;;;5096371;28;20231;-58
2022/02/24 11:16:17;;;;;;;6.43;2.60;;;15.80;98.80;;;;;;5095955;28;20208;-58
2022/02/24 11:18:44;;;;;;;3.42;1.80;;;16.00;98.60;;;;;;5070460;28;20444;-65
2022/02/24 11:21:12;;;;;;;3.17;1.70;;;16.30;98.20;;;;;;5055613;28;20288;-61
2022/02/24 11:23:40;;;;;;;3.10;1.60;;;16.40;97.50;;;;;;5055407;28;20593;-61
2022/02/24 11:26:31;;;;;;;3.57;1.60;;;16.60;97.30;;;;;;5055896;28;20210;-61
2022/02/24 11:29:04;;;;;;;3.73;1.50;;;16.70;96.60;;;;;;5054866;28;20300;-60
2022/02/24 11:31:39;;;;;;;4.87;1.40;;;16.80;96.20;;;;;;5055450;28;20209;-60
2022/02/24 11:34:06;;;;;;;3.03;1.75;;;17.00;95.50;;;;;;5055639;28;20236;-59
2022/02/24 11:36:39;;;;;;;3.35;1.42;;;17.10;95.30;;;;;;5055434;28;20209;-61
2022/02/24 11:39:08;;;;;;;3.22;1.38;;;17.30;94.40;;;;;;5055263;28;20673;-60
2022/02/24 11:41:50;;;;;;;5.10;1.50;;;17.50;94.10;;;;;;5055084;28;20282;-60
2022/02/24 11:44:31;;;;;;;2.38;1.25;;;17.50;93.70;;;;;;5054825;28;20229;-60
2022/02/24 11:46:58;;;;;;;3.15;1.50;;;17.70;93.80;;;;;;5054894;28;20205;-61
2022/02/24 11:49:58;;;;;;;3.15;1.52;;;17.90;92.90;;;;;;5055406;28;20259;-59
2022/02/24 11:52:26;;;;;;;2.88;1.27;;;18.10;92.40;;;;;;5055020;28;20201;-61
2022/02/24 11:54:53;;;;;;;4.32;1.60;;;18.20;92.30;;;;;;5054561;28;20225;-59
2022/02/24 11:57:29;;;;;;;2.33;1.60;;;18.30;91.90;;;;;;5054996;28;20205;-60
2022/02/24 11:59:57;;;;;;;2.70;1.50;;;18.40;91.70;;;;;;5054862;28;20602;-60
2022/02/24 12:02:40;;;;;;;3.72;1.40;;;18.40;91.00;;;;;;5054497;28;20213;-59
2022/02/24 12:05:18;;;;;;;2.05;1.13;;;18.40;90.90;;;;;;5054346;28;20283;-60
2022/02/24 12:08:01;;;;;;;2.50;1.60;;;18.40;90.10;;;;;;5055003;28;20254;-61
2022/02/24 12:10:39;;;;;;;2.83;1.52;;;18.50;89.30;;;;;;5055140;28;20288;-58
2022/02/24 12:13:31;;;;;;;3.22;1.42;;;18.50;89.40;;;;;;5054851;28;20240;-59
2022/02/24 12:16:13;;;;;;;3.67;1.45;;;18.60;87.80;;;;;;5054497;28;20252;-60
2022/02/24 12:18:41;;;;;;;3.13;1.42;;;18.60;86.60;;;;;;5054486;28;20213;-60
2022/02/24 12:21:30;;;;;;;5.88;1.45;;;18.50;86.70;;;;;;5054840;28;20661;-58
2022/02/24 12:23:59;;;;;;;3.45;1.30;;;18.40;87.10;;;;;;5054134;28;20233;-59
2022/02/24 12:26:38;;;;;;;2.42;1.27;;;18.40;86.30;;;;;;5054442;28;20217;-59
2022/02/24 12:29:26;;;;;;;3.13;1.20;;;18.40;84.90;;;;;;5054401;28;20213;-60
2022/02/24 12:31:58;;;;;;;2.30;1.38;;;18.60;84.00;;;;;;5054342;28;20209;-60
2022/02/24 12:34:25;;;;;;;4.93;1.67;;;18.60;83.20;;;;;;5054323;28;20308;-60
2022/02/24 12:36:52;;;;;;;4.55;1.30;;;18.70;83.50;;;;;;5053972;28;20256;-60
2022/02/24 12:39:19;;;;;;;4.03;1.58;;;18.70;83.00;;;;;;5054385;28;20588;-60
2022/02/24 12:41:46;;;;;;;4.38;2.72;;;18.70;82.20;;;;;;5054168;28;20297;-60
2022/02/24 12:44:24;;;;;;;5.82;1.50;;;18.80;82.20;;;;;;5054173;28;20235;-60
2022/02/24 12:46:51;;;;;;;4.03;1.50;;;18.80;81.50;;;;;;5053775;28;20209;-60
2022/02/24 12:49:18;;;;;;;5.47;1.58;;;18.90;81.10;;;;;;5054184;28;20202;-58
2022/02/24 12:51:45;;;;;;;2.88;1.33;;;18.90;80.90;;;;;;5054183;28;20255;-58
2022/02/24 12:54:12;;;;;;;4.40;1.38;;;18.90;80.90;;;;;;5053894;28;20275;-58
2022/02/24 12:56:40;;;;;;;2.55;1.50;;;18.80;80.90;;;;;;5054433;28;20300;-60
2022/02/24 12:59:10;;;;;;;3.03;1.50;;;18.80;81.20;;;;;;5053827;28;20674;-59